createdAt,value
2023-01-17T00:02:15.507Z,98450.13
2023-01-17T00:05:00.899Z,98436.94
2023-01-17T00:07:47.049Z,98446.50
2023-01-17T00:10:19.535Z,98460.03
2023-01-17T00:12:59.357Z,98465.44
2023-01-17T00:15:35.200Z,98463.50
2023-01-17T00:18:04.835Z,98468.59
2023-01-17T00:23:59.233Z,98467.66
2023-01-17T00:26:25.897Z,98484.69
2023-01-17T00:28:52.702Z,98488.19
2023-01-17T00:31:20.115Z,98490.09
2023-01-17T00:33:46.691Z,98493.13
2023-01-17T00:36:13.421Z,98488.03
2023-01-17T00:38:40.638Z,98501.88
2023-01-17T00:41:14.615Z,98503.03
2023-01-17T00:44:06.264Z,98509.56
2023-01-17T00:46:54.647Z,98519.13
2023-01-17T00:49:40.028Z,98526.63
2023-01-17T00:52:25.724Z,98544.19
2023-01-17T00:55:10.584Z,98546.19
2023-01-17T00:57:57.295Z,98540.34
2023-01-17T01:00:42.486Z,98544.66
2023-01-17T01:03:31.305Z,98547.69
2023-01-17T01:06:23.483Z,98543.72
2023-01-17T01:09:09.148Z,98544.41
2023-01-17T01:11:54.593Z,98529.78
2023-01-17T01:14:39.997Z,98536.28
2023-01-17T01:17:26.418Z,98551.38
2023-01-17T01:20:11.355Z,98555.66
2023-01-17T01:22:56.733Z,98564.56
2023-01-17T01:25:44.650Z,98569.28
2023-01-17T01:28:32.181Z,98572.47
2023-01-17T01:31:23.470Z,98576.44
2023-01-17T01:33:51.792Z,98582.63
2023-01-17T01:36:30.805Z,98587.06
2023-01-17T01:39:02.645Z,98588.66
2023-01-17T01:41:29.884Z,98585.47
2023-01-17T01:44:07.838Z,98591.22
2023-01-17T01:46:41.292Z,98595.88
2023-01-17T01:49:26.066Z,98594.31
2023-01-17T01:52:02.372Z,98596.69
2023-01-17T01:54:40.403Z,98595.59
2023-01-17T01:57:10.871Z,98599.91
2023-01-17T01:59:41.641Z,98601.97
2023-01-17T02:02:08.444Z,98611.81
2023-01-17T02:04:35.905Z,98609.25
2023-01-17T02:07:17.506Z,98628.31
2023-01-17T02:09:44.807Z,98627.53
2023-01-17T02:12:12.871Z,98634.50
2023-01-17T02:14:39.561Z,98647.84
2023-01-17T02:17:17.718Z,98657.22
2023-01-17T02:20:04.471Z,98670.88
2023-01-17T02:22:45.705Z,98677.06
2023-01-17T02:25:29.773Z,98679.91
2023-01-17T02:28:22.625Z,98673.25
2023-01-17T02:30:54.452Z,98678.63
2023-01-17T02:33:59.371Z,98675.16
2023-01-17T02:36:49.830Z,98665.16
2023-01-17T02:39:22.586Z,98674.50
2023-01-17T02:41:54.504Z,98674.50
2023-01-17T02:44:25.089Z,98674.50
2023-01-17T02:47:00.907Z,98679.44
2023-01-17T02:49:32.179Z,98678.16
2023-01-17T02:52:08.313Z,98683.88
2023-01-17T02:54:52.399Z,98686.56
2023-01-17T02:57:31.091Z,98689.25
2023-01-17T03:00:06.662Z,98680.06
2023-01-17T03:02:57.510Z,98691.47
2023-01-17T03:06:14.512Z,98692.59
2023-01-17T03:09:10.835Z,98688.97
2023-01-17T03:11:38.885Z,98684.19
2023-01-17T03:14:05.840Z,98692.13
2023-01-17T03:16:33.531Z,98693.22
2023-01-17T03:19:00.557Z,98695.44
2023-01-17T03:21:30.261Z,98699.25
2023-01-17T03:23:58.282Z,98700.84
2023-01-17T03:26:25.081Z,98696.25
2023-01-17T03:28:51.898Z,98712.91
2023-01-17T03:31:32.143Z,98712.13
2023-01-17T03:34:00.713Z,98709.91
2023-01-17T03:36:27.649Z,98717.69
2023-01-17T03:38:54.406Z,98724.19
2023-01-17T03:41:27.572Z,98717.50
2023-01-17T03:47:00.723Z,98726.53
2023-01-17T03:49:31.431Z,98725.09
2023-01-17T03:52:01.054Z,98728.72
2023-01-17T03:54:27.612Z,98733.47
2023-01-17T03:56:54.368Z,98741.56
2023-01-17T03:59:21.053Z,98735.69
2023-01-17T04:01:48.466Z,98737.44
2023-01-17T04:04:15.433Z,98734.88
2023-01-17T04:06:42.706Z,98738.81
2023-01-17T04:09:10.762Z,98735.13
2023-01-17T04:11:39.177Z,98747.66
2023-01-17T04:14:05.868Z,98747.78
2023-01-17T04:16:33.265Z,98753.78
2023-01-17T04:19:00.110Z,98756.63
2023-01-17T04:21:29.813Z,98762.34
2023-01-17T04:23:56.422Z,98765.84
2023-01-17T04:26:31.491Z,98762.81
2023-01-17T04:28:58.414Z,98760.94
2023-01-17T04:31:33.549Z,98759.81
2023-01-17T04:35:00.507Z,98747.13
2023-01-17T04:40:33.329Z,98749.16
2023-01-17T04:43:03.729Z,98744.41
2023-01-17T04:45:30.357Z,98739.63
2023-01-17T04:48:13.166Z,98739.13
2023-01-17T04:50:40.175Z,98739.44
2023-01-17T04:53:07.085Z,98738.16
2023-01-17T04:55:34.257Z,98736.56
2023-01-17T04:58:15.940Z,98737.38
2023-01-17T05:00:42.492Z,98739.25
2023-01-17T05:03:08.961Z,98748.13
2023-01-17T05:05:35.578Z,98743.25
2023-01-17T05:08:02.098Z,98744.34
2023-01-17T05:10:28.612Z,98745.75
2023-01-17T05:13:04.060Z,98751.94
2023-01-17T05:15:31.428Z,98757.94
2023-01-17T05:17:58.464Z,98758.56
2023-01-17T05:20:42.227Z,98755.97
2023-01-17T05:23:17.461Z,98759.63
2023-01-17T05:25:53.070Z,98773.22
2023-01-17T05:28:21.969Z,98763.03
2023-01-17T05:30:54.758Z,98774.44
2023-01-17T05:36:03.870Z,98769.16
2023-01-17T05:38:30.520Z,98772.97
2023-01-17T05:41:00.330Z,98768.19
2023-01-17T05:43:27.500Z,98778.94
2023-01-17T05:45:58.361Z,98784.94
2023-01-17T05:48:52.064Z,98786.03
2023-01-17T05:51:29.474Z,98782.06
2023-01-17T05:53:57.577Z,98789.66
2023-01-17T05:56:38.534Z,98792.66
2023-01-17T05:59:07.395Z,98807.69
2023-01-17T06:01:39.501Z,98803.44
2023-01-17T06:04:09.608Z,98804.53
2023-01-17T06:06:36.422Z,98797.56
2023-01-17T06:09:15.825Z,98808.03
2023-01-17T06:11:46.165Z,98811.53
2023-01-17T06:14:21.587Z,98829.94
2023-01-17T06:16:51.311Z,98821.25
2023-01-17T06:19:22.920Z,98816.84
2023-01-17T06:21:52.610Z,98840.47
2023-01-17T06:24:19.325Z,98835.78
2023-01-17T06:26:46.036Z,98836.25
2023-01-17T06:29:12.735Z,98834.56
2023-01-17T06:31:39.598Z,98836.66
2023-01-17T06:34:07.751Z,98826.34
2023-01-17T06:36:34.469Z,98818.25
2023-01-17T06:39:04.379Z,98824.44
2023-01-17T06:41:35.052Z,98817.16
2023-01-17T06:44:01.937Z,98820.47
2023-01-17T06:46:28.484Z,98815.69
2023-01-17T06:49:09.995Z,98813.13
2023-01-17T06:51:36.554Z,98826.09
2023-01-17T06:54:11.481Z,98819.72
2023-01-17T06:56:44.750Z,98826.81
2023-01-17T06:59:20.788Z,98826.94
2023-01-17T07:01:47.591Z,98832.13
2023-01-17T07:04:14.122Z,98830.84
2023-01-17T07:06:40.808Z,98828.78
2023-01-17T07:09:07.603Z,98830.19
2023-01-17T07:11:45.432Z,98831.88
2023-01-17T07:14:13.749Z,98834.88
2023-01-17T07:16:40.692Z,98832.78
2023-01-17T07:19:20.098Z,98833.38
2023-01-17T07:21:49.920Z,98833.97
2023-01-17T07:24:16.571Z,98836.19
2023-01-17T07:27:09.417Z,98837.59
2023-01-17T07:29:36.025Z,98835.50
2023-01-17T07:32:08.800Z,98845.75
2023-01-17T07:34:38.522Z,98844.97
2023-01-17T07:37:05.126Z,98844.00
2023-01-17T07:39:32.722Z,98839.41
2023-01-17T07:42:02.825Z,98838.13
2023-01-17T07:45:54.512Z,98840.81
2023-01-17T07:55:07.255Z,98849.97
2023-01-17T07:57:52.110Z,98853.97
2023-01-17T08:03:42.221Z,98849.84
2023-01-17T08:06:23.714Z,98856.03
2023-01-17T08:16:53.544Z,98855.53
2023-01-17T08:23:26.650Z,98852.72
2023-01-17T09:00:58.508Z,98888.63
2023-01-17T09:07:41.329Z,98894.44
2023-01-17T09:10:08.721Z,98896.16
2023-01-17T09:13:09.588Z,98897.09
2023-01-17T09:15:36.453Z,98908.00
2023-01-17T09:18:15.833Z,98902.53
2023-01-17T09:20:42.422Z,98908.53
2023-01-17T09:23:09.113Z,98908.69
2023-01-17T09:25:35.656Z,98908.19
2023-01-17T09:28:02.209Z,98914.38
2023-01-17T09:30:28.876Z,98915.16
2023-01-17T09:32:55.573Z,98923.75
2023-01-17T09:35:31.088Z,98913.91
2023-01-17T09:37:58.260Z,98917.28
2023-01-17T09:40:25.386Z,98920.84
2023-01-17T09:42:58.105Z,98921.72
2023-01-17T09:45:28.557Z,98920.81
2023-01-17T09:47:55.741Z,98923.19
2023-01-17T09:50:44.035Z,98923.34
2023-01-17T09:53:33.995Z,98938.31
2023-01-17T09:57:04.761Z,98932.06
2023-01-17T10:00:03.164Z,98936.53
2023-01-17T10:03:28.748Z,98933.75
2023-01-17T10:06:07.442Z,98947.16
2023-01-17T10:09:17.312Z,98941.59
2023-01-17T10:12:21.207Z,98933.53
2023-01-17T10:14:54.855Z,98934.31
2023-01-17T10:17:37.895Z,98932.28
2023-01-17T10:23:38.568Z,98940.84
2023-01-17T10:26:39.522Z,98935.78
2023-01-17T10:29:19.986Z,98932.00
2023-01-17T10:32:00.390Z,98928.84
2023-01-17T10:34:47.721Z,98933.63
2023-01-17T10:37:20.840Z,98936.59
2023-01-17T10:39:50.107Z,98937.66
2023-01-17T10:42:23.165Z,98933.72
2023-01-17T10:45:18.223Z,98940.94
2023-01-17T10:47:51.796Z,98943.91
2023-01-17T10:50:21.062Z,98935.41
2023-01-17T10:57:01.876Z,98945.09
2023-01-17T10:59:44.424Z,98945.22
2023-01-17T11:02:26.309Z,98948.31
2023-01-17T11:04:55.837Z,98932.25
2023-01-17T11:07:28.387Z,98942.31
2023-01-17T11:09:56.957Z,98951.97
2023-01-17T11:12:29.436Z,98946.88
2023-01-17T11:15:01.724Z,98950.38
2023-01-17T11:17:29.360Z,98950.50
2023-01-17T11:20:24.210Z,98958.16
2023-01-17T11:23:04.361Z,98947.47
2023-01-17T11:25:35.603Z,98944.47
2023-01-17T11:28:22.108Z,98936.47
2023-01-17T11:30:57.338Z,98934.94
2023-01-17T11:33:56.655Z,98934.25
2023-01-17T11:36:27.299Z,98932.22
2023-01-17T11:38:57.599Z,98932.19
2023-01-17T11:41:28.271Z,98925.81
2023-01-17T11:43:59.273Z,98930.88
2023-01-17T11:46:29.517Z,98929.75
2023-01-17T11:49:00.651Z,98924.25
2023-01-17T11:51:31.414Z,98920.53
2023-01-17T11:54:30.112Z,98921.28
2023-01-17T11:57:01.550Z,98923.47
2023-01-17T11:59:37.626Z,98917.06
2023-01-17T12:02:49.934Z,98922.25
2023-01-17T12:05:41.543Z,98922.00
2023-01-17T12:08:30.406Z,98920.78
2023-01-17T12:11:25.489Z,98920.34
2023-01-17T12:14:22.646Z,98920.59
2023-01-17T12:17:01.950Z,98910.84
2023-01-17T12:20:06.123Z,98910.97
2023-01-17T12:22:38.572Z,98914.75
2023-01-17T12:25:23.671Z,98911.91
2023-01-17T12:28:09.543Z,98903.13
2023-01-17T12:31:02.395Z,98899.94
2023-01-17T12:33:46.228Z,98896.78
2023-01-17T12:36:21.996Z,98895.69
2023-01-17T12:39:04.307Z,98890.19
2023-01-17T12:41:51.109Z,98889.22
2023-01-17T12:44:36.431Z,98894.38
2023-01-17T12:47:54.610Z,98894.78
2023-01-17T12:50:30.824Z,98892.44
2023-01-17T12:53:24.152Z,98887.88
2023-01-17T12:56:36.357Z,98893.97
2023-01-17T12:59:48.186Z,98898.47
2023-01-17T13:02:46.142Z,98897.63
2023-01-17T13:05:24.495Z,98905.38
2023-01-17T13:08:27.250Z,98907.44
2023-01-17T13:11:35.315Z,98902.09
2023-01-17T13:18:23.407Z,98908.66
2023-01-17T13:21:20.930Z,98914.19
2023-01-17T13:28:47.149Z,98919.00
2023-01-17T13:35:50.582Z,98921.56
2023-01-17T15:22:51.150Z,98955.81
2023-01-17T15:31:48.842Z,98970.31
2023-01-17T15:47:45.708Z,98974.28
2023-01-17T15:55:15.009Z,98973.03
2023-01-17T16:06:00.437Z,98975.53
2023-01-17T16:09:30.917Z,98974.41
2023-01-17T16:12:00.916Z,98971.53
2023-01-17T16:14:30.679Z,98970.56
2023-01-17T16:17:20.928Z,98970.56
2023-01-17T16:20:26.788Z,98974.69
2023-01-17T16:23:02.934Z,98979.25
2023-01-17T16:40:56.603Z,98995.78
2023-01-17T17:12:43.969Z,99019.59
2023-01-17T17:15:18.019Z,99024.31
2023-01-17T17:24:02.454Z,99028.38
2023-01-17T17:29:48.416Z,99038.28
2023-01-17T17:32:24.696Z,99046.19
2023-01-17T17:34:56.756Z,99050.09
2023-01-17T17:37:44.190Z,99050.19
2023-01-17T17:40:14.151Z,99059.69
2023-01-17T17:42:42.851Z,99057.59
2023-01-17T17:45:09.967Z,99057.88
2023-01-17T17:47:39.145Z,99056.31
2023-01-17T17:50:20.075Z,99057.72
2023-01-17T17:52:58.033Z,99071.50
2023-01-17T17:55:51.815Z,99075.88
2023-01-17T17:58:18.720Z,99077.59
2023-01-17T18:00:45.286Z,99080.38
2023-01-17T18:03:11.812Z,99081.78
2023-01-17T18:05:39.080Z,99082.06
2023-01-17T18:12:13.629Z,99090.25
2023-01-17T18:14:40.470Z,99088.34
2023-01-17T18:17:15.927Z,99102.13
2023-01-17T18:19:42.568Z,99104.31
2023-01-17T18:22:12.377Z,99109.72
2023-01-17T18:24:43.462Z,99111.91
2023-01-17T18:27:10.649Z,99114.13
2023-01-17T18:29:38.689Z,99112.81
2023-01-17T18:32:08.569Z,99123.41
2023-01-17T18:34:35.765Z,99132.28
2023-01-17T18:37:02.437Z,99141.16
2023-01-17T18:39:32.834Z,99129.28
2023-01-17T18:42:00.242Z,99140.34
2023-01-17T18:44:27.529Z,99147.94
2023-01-17T18:46:54.905Z,99145.84
2023-01-17T18:49:21.524Z,99147.53
2023-01-17T18:51:51.941Z,99146.72
2023-01-17T18:54:20.177Z,99143.81
2023-01-17T18:56:47.647Z,99146.22
2023-01-17T18:59:18.130Z,99144.13
2023-01-17T19:01:44.878Z,99145.50
2023-01-17T19:04:17.135Z,99150.09
2023-01-17T19:06:46.639Z,99147.47
2023-01-17T19:09:54.438Z,99152.97
2023-01-17T19:12:21.104Z,99157.84
2023-01-17T19:14:50.307Z,99157.94
2023-01-17T19:17:28.050Z,99156.41
2023-01-17T19:20:00.634Z,99155.91
2023-01-17T19:22:46.306Z,99162.97
2023-01-17T19:25:13.759Z,99166.47
2023-01-17T19:27:47.646Z,99161.38
2023-01-17T19:30:17.760Z,99164.34
2023-01-17T19:32:45.667Z,99173.53
2023-01-17T19:35:13.946Z,99173.00
2023-01-17T19:37:48.318Z,99177.38
2023-01-17T19:40:17.020Z,99169.13
2023-01-17T19:42:44.130Z,99174.00
2023-01-17T19:45:14.114Z,99176.19
2023-01-17T19:47:45.150Z,99181.06
2023-01-17T19:50:14.901Z,99181.06
2023-01-17T19:52:44.340Z,99180.25
2023-01-17T19:55:13.201Z,99182.94
2023-01-17T19:57:42.824Z,99190.44
2023-01-17T20:00:14.432Z,99181.28
2023-01-17T20:02:43.518Z,99193.13
2023-01-17T20:05:09.964Z,99187.53
2023-01-17T20:07:39.977Z,99192.91
2023-01-17T20:10:47.234Z,99189.41
2023-01-17T20:13:15.875Z,99196.69
2023-01-17T20:15:42.467Z,99192.41
2023-01-17T20:18:08.909Z,99189.19
2023-01-17T20:20:39.618Z,99189.47
2023-01-17T20:23:26.042Z,99188.97
2023-01-17T20:25:58.847Z,99194.13
2023-01-17T20:28:29.593Z,99192.81
2023-01-17T20:30:56.436Z,99186.94
2023-01-17T20:33:25.229Z,99191.81
2023-01-17T20:36:08.781Z,99192.38
2023-01-17T20:38:45.484Z,99187.28
2023-01-17T20:41:18.009Z,99190.31
2023-01-17T20:43:50.309Z,99186.81
2023-01-17T20:46:18.831Z,99193.28
2023-01-17T20:48:48.488Z,99193.56
2023-01-17T20:51:15.803Z,99193.28
2023-01-17T20:53:43.995Z,99192.75
2023-01-17T20:56:13.235Z,99202.50
2023-01-17T20:58:40.407Z,99199.28
2023-01-17T21:01:09.746Z,99201.47
2023-01-17T21:03:46.843Z,99199.38
2023-01-17T21:06:19.567Z,99202.34
2023-01-17T21:08:47.427Z,99199.94
2023-01-17T21:11:17.494Z,99203.44
2023-01-17T21:13:44.443Z,99203.72
2023-01-17T21:16:30.891Z,99208.88
2023-01-17T21:19:34.165Z,99209.44
2023-01-17T21:21:59.180Z,99213.22
2023-01-17T21:24:31.602Z,99214.59
2023-01-17T21:26:58.132Z,99214.06
2023-01-17T21:29:28.980Z,99213.59
2023-01-17T21:31:56.143Z,99214.97
2023-01-17T21:34:25.278Z,99209.88
2023-01-17T21:36:52.006Z,99210.69
2023-01-17T21:39:19.746Z,99213.38
2023-01-17T21:41:49.623Z,99215.25
2023-01-17T21:44:24.337Z,99214.72
2023-01-17T21:46:57.076Z,99210.44
2023-01-17T21:49:24.926Z,99209.94
2023-01-17T21:51:55.090Z,99209.94
2023-01-17T21:54:49.574Z,99206.72
2023-01-17T21:57:39.127Z,99207.31
2023-01-17T22:00:06.768Z,99213.25
2023-01-17T22:02:38.208Z,99213.00
2023-01-17T22:05:05.517Z,99211.41
2023-01-17T22:07:32.075Z,99214.38
2023-01-17T22:12:43.033Z,99215.84
2023-01-17T22:15:10.016Z,99219.09
2023-01-17T22:17:38.265Z,99224.22
2023-01-17T22:20:07.488Z,99233.94
2023-01-17T22:22:34.443Z,99238.50
2023-01-17T22:25:01.117Z,99231.31
2023-01-17T22:27:28.483Z,99234.28
2023-01-17T22:29:55.517Z,99242.63
2023-01-17T22:32:22.081Z,99239.41
2023-01-17T22:34:48.687Z,99245.88
2023-01-17T22:37:15.342Z,99241.06
2023-01-17T22:39:41.967Z,99247.78
2023-01-17T22:42:09.930Z,99247.28
2023-01-17T22:45:02.242Z,99259.38
2023-01-17T22:47:28.820Z,99250.31
2023-01-17T22:49:55.318Z,99247.09
2023-01-17T22:52:22.178Z,99251.16
2023-01-17T22:54:48.918Z,99254.13
2023-01-17T22:57:15.473Z,99252.81
2023-01-17T22:59:42.275Z,99254.69
2023-01-17T23:02:09.522Z,99247.72
2023-01-17T23:04:35.996Z,99246.09
2023-01-17T23:07:02.910Z,99243.69
2023-01-17T23:09:29.504Z,99238.63
2023-01-17T23:11:56.743Z,99244.78
2023-01-17T23:14:52.110Z,99241.84
2023-01-17T23:17:43.073Z,99245.91
2023-01-17T23:20:11.176Z,99245.09
2023-01-17T23:22:37.813Z,99240.00
2023-01-17T23:25:11.195Z,99248.34
2023-01-17T23:28:01.642Z,99237.09
2023-01-17T23:30:29.279Z,99239.25
2023-01-17T23:32:58.675Z,99247.31
2023-01-17T23:35:27.544Z,99245.69
2023-01-17T23:38:14.587Z,99249.50
2023-01-17T23:40:43.382Z,99246.28
2023-01-17T23:43:25.519Z,99250.84
2023-01-17T23:45:56.777Z,99248.44
2023-01-17T23:48:26.197Z,99246.84
2023-01-17T23:51:00.622Z,99243.63
2023-01-17T23:53:28.148Z,99252.78
2023-01-17T23:55:59.979Z,99254.94
2023-01-17T23:58:30.425Z,99250.38
